Time;durP1;ratioP1;P1;durP2;ratioP2;P2;SDS_P1;SDS_P2;PMS_P1;PMS_P2;Temp;Humidity;BMP_temperature;BMP_pressure;BME280_temperature;BME280_humidity;BME280_pressure;Samples;Min_cycle;Max_cycle;Signal;HPM_P1;HPM_P2
2022/10/15 00:02:08;;;;;;;42.70;27.70;;;10.50;99.90;;;;;;2603780;54;20034;31
2022/10/15 00:04:42;;;;;;;38.10;25.85;;;10.50;99.90;;;;;;2603514;54;20023;31
2022/10/15 00:07:16;;;;;;;40.85;27.55;;;10.40;99.90;;;;;;2603578;54;20054;31
2022/10/15 00:09:53;;;;;;;42.60;27.10;;;10.40;99.90;;;;;;2603713;54;20030;31
2022/10/15 00:12:28;;;;;;;46.05;28.00;;;10.70;99.90;;;;;;2603589;54;20816;31
2022/10/15 00:15:04;;;;;;;40.60;27.50;;;10.30;99.90;;;;;;2603636;54;20031;31
2022/10/15 00:17:38;;;;;;;45.10;27.17;;;10.30;99.90;;;;;;2603205;54;20026;31
2022/10/15 00:20:12;;;;;;;44.30;27.70;;;10.30;99.90;;;;;;2603330;54;20085;31
2022/10/15 00:22:47;;;;;;;52.60;29.95;;;10.30;99.90;;;;;;2603686;54;20035;31
2022/10/15 00:25:24;;;;;;;41.15;26.73;;;10.20;99.90;;;;;;2622136;46;20933;31
2022/10/15 00:27:57;;;;;;;47.47;26.85;;;10.20;99.90;;;;;;2603656;54;20026;31
2022/10/15 00:30:32;;;;;;;44.50;28.00;;;10.20;99.90;;;;;;2603473;54;20900;31
2022/10/15 00:33:07;;;;;;;47.47;29.10;;;10.20;99.90;;;;;;2603462;54;20845;31
2022/10/15 00:35:41;;;;;;;39.45;26.20;;;10.40;99.90;;;;;;2603374;54;20022;31
2022/10/15 00:38:15;;;;;;;42.08;27.25;;;10.50;99.90;;;;;;2603286;54;20048;31
2022/10/15 00:40:51;;;;;;;45.65;27.10;;;10.10;99.90;;;;;;2603510;54;20812;31
2022/10/15 00:43:40;;;;;;;39.45;26.08;;;10.20;99.90;;;;;;2622251;46;20092;31
2022/10/15 00:46:19;;;;;;;45.60;28.05;;;10.10;99.90;;;;;;2603634;54;20027;31
2022/10/15 00:48:56;;;;;;;34.20;22.73;;;10.10;99.90;;;;;;2603672;54;20026;31
2022/10/15 00:51:35;;;;;;;39.40;25.40;;;10.20;99.90;;;;;;2603469;54;19954;31
2022/10/15 00:54:10;;;;;;;41.78;26.48;;;10.30;99.90;;;;;;2603493;54;20082;31
2022/10/15 00:56:48;;;;;;;43.22;27.15;;;10.20;99.90;;;;;;2622054;46;20033;31
2022/10/15 00:59:23;;;;;;;45.92;27.15;;;10.10;99.90;;;;;;2603411;54;20026;31
2022/10/15 01:01:59;;;;;;;38.25;26.42;;;10.20;99.90;;;;;;2603339;54;20034;31
2022/10/15 01:04:34;;;;;;;44.55;25.75;;;10.20;99.90;;;;;;2603410;54;20141;31
2022/10/15 01:07:08;;;;;;;46.10;27.08;;;10.20;99.90;;;;;;2603249;54;20053;31
2022/10/15 01:09:45;;;;;;;41.28;26.58;;;10.10;99.90;;;;;;2603686;54;20027;31
2022/10/15 01:12:35;;;;;;;42.55;26.70;;;10.20;99.90;;;;;;2603428;54;20022;31
2022/10/15 01:15:10;;;;;;;46.17;25.90;;;10.20;99.90;;;;;;2701888;39;22384;31
2022/10/15 01:17:46;;;;;;;40.50;24.70;;;10.20;99.90;;;;;;2603443;54;20026;31
2022/10/15 01:20:41;;;;;;;;;;;10.40;99.90;;;;;;2622226;46;20966;31
2022/10/15 01:23:29;;;;;;;41.85;24.35;;;10.10;99.90;;;;;;2621925;46;19934;31
2022/10/15 01:26:09;;;;;;;42.45;26.35;;;10.10;99.90;;;;;;2603118;54;20100;31
2022/10/15 01:28:49;;;;;;;41.33;27.40;;;10.10;99.90;;;;;;2622071;46;20034;31
2022/10/15 01:31:33;;;;;;;44.15;26.90;;;10.00;99.90;;;;;;2603354;54;20061;31
2022/10/15 01:34:10;;;;;;;38.60;25.45;;;10.00;99.90;;;;;;2603532;54;20835;31
2022/10/15 01:36:47;;;;;;;42.20;26.65;;;9.90;99.90;;;;;;2603196;54;20030;31
2022/10/15 01:39:24;;;;;;;41.50;25.30;;;9.90;99.90;;;;;;2603304;54;20855;31
2022/10/15 01:42:00;;;;;;;42.67;28.50;;;9.90;99.90;;;;;;2603259;54;20268;31
2022/10/15 01:44:36;;;;;;;47.10;26.55;;;9.80;99.90;;;;;;2621650;46;20046;31
2022/10/15 01:47:44;;;;;;;44.13;26.80;;;9.80;99.90;;;;;;2603135;54;20113;31
2022/10/15 01:50:19;;;;;;;44.20;27.73;;;9.80;99.90;;;;;;2621778;46;20810;31
2022/10/15 01:52:54;;;;;;;47.45;28.35;;;9.80;99.90;;;;;;2603181;54;20922;31
2022/10/15 01:55:28;;;;;;;45.27;28.03;;;9.80;99.90;;;;;;2603122;54;20085;31
2022/10/15 01:58:07;;;;;;;45.90;29.40;;;9.80;99.90;;;;;;2622050;46;20904;31
2022/10/15 02:00:43;;;;;;;46.05;29.05;;;9.80;99.90;;;;;;2773004;31;20537;31
2022/10/15 02:03:21;;;;;;;46.77;28.87;;;9.70;99.90;;;;;;2603265;54;20857;31
2022/10/15 02:05:58;;;;;;;41.35;27.80;;;9.80;99.90;;;;;;2603087;54;20057;31
2022/10/15 02:08:36;;;;;;;45.60;28.85;;;9.70;99.90;;;;;;2603207;54;20903;31
2022/10/15 02:11:11;;;;;;;48.65;31.00;;;9.70;99.90;;;;;;2603108;54;20841;31
2022/10/15 02:13:54;;;;;;;48.72;31.10;;;9.60;99.90;;;;;;2603153;54;20033;31
2022/10/15 02:16:30;;;;;;;49.97;31.02;;;9.60;99.90;;;;;;2603035;54;20064;31
2022/10/15 02:19:09;;;;;;;51.10;31.43;;;9.60;99.90;;;;;;2621749;46;20029;31
2022/10/15 02:21:44;;;;;;;49.70;31.30;;;9.60;99.90;;;;;;2603059;54;20026;31
2022/10/15 02:24:21;;;;;;;54.08;32.92;;;9.60;99.90;;;;;;2621317;46;20185;31
2022/10/15 02:26:57;;;;;;;54.92;33.47;;;9.60;99.90;;;;;;2621240;46;20854;31
2022/10/15 02:29:34;;;;;;;55.75;32.65;;;9.50;99.90;;;;;;2621200;47;20847;31
2022/10/15 02:32:08;;;;;;;56.80;31.70;;;9.50;99.90;;;;;;2603004;54;20038;31
2022/10/15 02:34:46;;;;;;;54.42;32.78;;;9.60;99.90;;;;;;2603227;54;20862;31
2022/10/15 02:39:52;;;;;;;54.55;33.20;;;9.60;99.90;;;;;;2603229;54;20050;31
2022/10/15 02:42:25;;;;;;;50.08;31.08;;;9.60;99.90;;;;;;2602832;54;20093;31
2022/10/15 02:44:59;;;;;;;55.35;32.25;;;9.60;99.90;;;;;;2603307;54;20022;31
2022/10/15 02:47:33;;;;;;;53.13;33.15;;;9.60;99.90;;;;;;2602712;54;20026;31
2022/10/15 02:50:12;;;;;;;54.15;33.38;;;9.50;99.90;;;;;;2603049;54;20884;31
2022/10/15 02:52:47;;;;;;;57.35;33.20;;;9.60;99.90;;;;;;2603101;54;20786;31
2022/10/15 02:55:20;;;;;;;57.05;33.35;;;9.60;99.90;;;;;;2603070;54;20028;31
2022/10/15 02:57:55;;;;;;;60.15;34.70;;;9.60;99.90;;;;;;2603055;54;20656;31
2022/10/15 03:00:29;;;;;;;61.03;34.70;;;9.60;99.90;;;;;;2603016;54;25027;31
2022/10/15 03:03:04;;;;;;;68.70;38.45;;;9.60;99.90;;;;;;2603007;54;20056;31
2022/10/15 03:05:41;;;;;;;70.65;39.95;;;9.60;99.90;;;;;;2602692;54;20022;31
2022/10/15 03:08:16;;;;;;;78.60;40.85;;;10.00;99.90;;;;;;2621623;47;20859;31
2022/10/15 03:10:51;;;;;;;73.38;38.03;;;9.60;99.90;;;;;;2603013;54;20022;31
2022/10/15 03:13:25;;;;;;;62.25;36.20;;;9.70;99.90;;;;;;2621733;47;20892;31
2022/10/15 03:16:00;;;;;;;63.75;36.45;;;9.70;99.90;;;;;;2602941;54;20951;31
2022/10/15 03:18:35;;;;;;;58.63;34.93;;;9.60;99.90;;;;;;2603064;54;20034;31
2022/10/15 03:21:18;;;;;;;60.85;37.35;;;9.60;99.90;;;;;;2602938;54;20859;31
2022/10/15 03:23:53;;;;;;;62.60;36.50;;;9.60;99.90;;;;;;2602899;54;20080;31
2022/10/15 03:26:30;;;;;;;59.33;35.17;;;9.60;99.90;;;;;;2602886;54;20874;31
2022/10/15 03:29:05;;;;;;;55.45;34.05;;;9.60;99.90;;;;;;2602896;54;20032;31
2022/10/15 03:31:44;;;;;;;56.60;34.95;;;9.70;99.90;;;;;;2621698;47;20877;31
2022/10/15 03:34:19;;;;;;;56.80;33.70;;;9.60;99.90;;;;;;2603043;54;20030;31
2022/10/15 03:36:54;;;;;;;62.63;35.90;;;9.60;99.90;;;;;;2621298;47;20022;31
2022/10/15 03:39:31;;;;;;;52.20;32.60;;;9.70;99.90;;;;;;2602808;54;20030;31
2022/10/15 03:42:09;;;;;;;56.80;33.05;;;9.70;99.90;;;;;;2603792;54;20029;31
2022/10/15 03:44:51;;;;;;;54.25;32.15;;;9.70;99.90;;;;;;2622077;46;20062;31
2022/10/15 03:47:26;;;;;;;49.50;31.20;;;9.80;99.90;;;;;;2603710;54;20044;31
2022/10/15 03:50:00;;;;;;;;;;;9.70;99.90;;;;;;2603634;54;20033;31
2022/10/15 03:52:36;;;;;;;50.15;31.05;;;9.70;99.90;;;;;;2701898;39;20389;31
2022/10/15 03:55:12;;;;;;;47.42;29.98;;;10.10;99.90;;;;;;2603386;54;20081;31
2022/10/15 03:57:48;;;;;;;45.10;29.05;;;9.70;99.90;;;;;;2622042;46;20097;31
2022/10/15 04:00:24;;;;;;;47.78;27.88;;;9.70;99.90;;;;;;2612732;46;20075;31
2022/10/15 04:03:02;;;;;;;46.60;30.02;;;9.80;99.90;;;;;;2603456;54;20952;31
2022/10/15 04:05:37;;;;;;;43.10;28.40;;;9.80;99.90;;;;;;2603769;54;20030;31
2022/10/15 04:08:15;;;;;;;39.35;25.70;;;10.00;99.90;;;;;;2603616;54;20030;31
2022/10/15 04:10:53;;;;;;;46.70;28.10;;;9.80;99.90;;;;;;2621973;46;20155;31
2022/10/15 04:13:27;;;;;;;44.42;28.98;;;9.80;99.90;;;;;;2603747;54;20034;31
2022/10/15 04:16:01;;;;;;;44.90;27.90;;;9.90;99.90;;;;;;2621750;46;20892;31
2022/10/15 04:18:37;;;;;;;48.00;30.80;;;9.90;99.90;;;;;;2621905;46;20022;31
2022/10/15 04:21:11;;;;;;;46.80;30.10;;;10.00;99.90;;;;;;2603465;54;20034;31
2022/10/15 04:23:50;;;;;;;46.25;29.70;;;9.90;99.90;;;;;;2603300;54;20044;31
2022/10/15 04:26:34;;;;;;;43.88;29.30;;;9.90;99.90;;;;;;2603483;54;20445;31
2022/10/15 04:29:09;;;;;;;47.30;29.17;;;10.00;99.90;;;;;;2603573;54;20022;31
2022/10/15 04:31:43;;;;;;;44.65;28.95;;;9.90;99.90;;;;;;2603151;54;20789;31
2022/10/15 04:34:17;;;;;;;55.25;31.65;;;9.90;99.90;;;;;;2621898;46;20914;31
2022/10/15 04:36:51;;;;;;;42.25;27.70;;;9.90;99.90;;;;;;2603598;54;20089;31
2022/10/15 04:39:27;;;;;;;44.05;28.27;;;9.90;99.90;;;;;;2603605;54;20933;31
2022/10/15 04:42:04;;;;;;;43.95;29.38;;;9.90;99.90;;;;;;2603447;54;20034;31
2022/10/15 04:44:40;;;;;;;44.15;28.20;;;10.00;99.90;;;;;;2603282;54;20077;31
2022/10/15 04:47:15;;;;;;;49.58;30.65;;;10.00;99.90;;;;;;2603258;54;20042;31
2022/10/15 04:49:58;;;;;;;47.63;30.05;;;10.00;99.90;;;;;;2603382;54;20073;31
2022/10/15 04:52:41;;;;;;;49.13;30.38;;;10.00;99.90;;;;;;2622218;47;20923;31
2022/10/15 04:55:18;;;;;;;50.53;30.38;;;10.00;99.90;;;;;;2603426;54;20897;31
2022/10/15 04:57:55;;;;;;;46.27;30.40;;;10.10;99.90;;;;;;2621706;46;20097;31
2022/10/15 05:00:34;;;;;;;47.58;29.98;;;10.00;99.90;;;;;;2765069;31;20035;31
2022/10/15 05:03:38;;;;;;;48.72;29.65;;;10.10;99.90;;;;;;2603205;54;20034;31
2022/10/15 05:06:18;;;;;;;49.75;30.30;;;10.00;99.90;;;;;;2603326;54;20029;31
2022/10/15 05:08:53;;;;;;;50.35;29.80;;;10.10;99.90;;;;;;2603447;54;20018;31
2022/10/15 05:11:32;;;;;;;53.05;30.45;;;10.10;99.90;;;;;;2603536;54;20029;31
2022/10/15 05:14:09;;;;;;;50.40;30.27;;;10.10;99.90;;;;;;2603254;54;20910;31
2022/10/15 05:16:45;;;;;;;50.53;31.33;;;10.10;99.90;;;;;;2603559;54;20022;31
2022/10/15 05:19:20;;;;;;;47.55;29.27;;;10.10;99.90;;;;;;2621344;46;20910;31
2022/10/15 05:21:55;;;;;;;49.33;30.05;;;10.10;99.90;;;;;;2621751;46;19993;31
2022/10/15 05:24:33;;;;;;;48.17;29.80;;;10.10;99.90;;;;;;2603333;54;21242;31
2022/10/15 05:27:32;;;;;;;49.05;30.52;;;10.10;99.90;;;;;;2603255;54;20023;31
2022/10/15 05:30:13;;;;;;;47.20;29.45;;;10.10;99.90;;;;;;2603115;54;20705;31
2022/10/15 05:32:54;;;;;;;55.97;30.23;;;10.10;99.90;;;;;;2603403;54;20881;31
2022/10/15 05:35:30;;;;;;;55.10;31.15;;;10.10;99.90;;;;;;2603258;54;20027;31
2022/10/15 05:38:08;;;;;;;47.80;30.25;;;10.20;99.90;;;;;;2603313;54;20026;31
2022/10/15 05:40:42;;;;;;;49.50;30.83;;;10.20;99.90;;;;;;2603197;54;20111;31
2022/10/15 05:43:24;;;;;;;53.80;29.73;;;10.10;99.90;;;;;;2603364;54;20936;31
2022/10/15 05:46:01;;;;;;;54.17;31.42;;;10.20;99.90;;;;;;2603272;54;20030;31
2022/10/15 05:48:37;;;;;;;52.60;30.30;;;10.10;99.90;;;;;;2604283;46;20026;31
2022/10/15 05:51:15;;;;;;;53.95;31.48;;;10.20;99.90;;;;;;2603271;54;20824;31
2022/10/15 05:53:53;;;;;;;57.10;31.50;;;10.30;99.90;;;;;;2603327;54;20845;31
2022/10/15 05:56:29;;;;;;;53.33;32.17;;;10.20;99.90;;;;;;2621591;46;20026;31
2022/10/15 05:59:04;;;;;;;52.10;30.20;;;10.60;99.90;;;;;;2603345;54;20041;31
2022/10/15 06:01:43;;;;;;;54.35;31.80;;;10.30;99.90;;;;;;2603303;54;20027;31
2022/10/15 06:04:17;;;;;;;53.22;31.98;;;10.20;99.90;;;;;;2602774;54;20072;31
2022/10/15 06:06:55;;;;;;;55.90;31.77;;;10.30;99.90;;;;;;2603338;54;20909;31
2022/10/15 06:09:32;;;;;;;50.63;31.40;;;10.30;99.90;;;;;;2603322;54;20085;31
2022/10/15 06:12:13;;;;;;;48.07;28.07;;;10.30;99.90;;;;;;2603388;54;20031;31
2022/10/15 06:14:48;;;;;;;54.00;32.15;;;10.30;99.90;;;;;;2603311;54;20030;31
2022/10/15 06:17:27;;;;;;;54.37;31.77;;;10.40;99.90;;;;;;2603216;54;20909;31
2022/10/15 06:20:02;;;;;;;53.97;31.77;;;10.70;99.90;;;;;;2602908;54;20052;31
2022/10/15 06:22:37;;;;;;;51.65;30.10;;;10.50;99.90;;;;;;2603268;54;20570;31
2022/10/15 06:25:12;;;;;;;62.40;37.45;;;10.50;99.90;;;;;;2621553;46;20157;31
2022/10/15 06:27:46;;;;;;;74.05;43.45;;;10.50;99.90;;;;;;2603157;54;20900;31
2022/10/15 06:30:22;;;;;;;70.65;42.03;;;10.60;99.90;;;;;;2603129;54;20085;31
2022/10/15 06:32:59;;;;;;;74.15;50.80;;;10.60;99.90;;;;;;2622132;46;20877;31
2022/10/15 06:35:34;;;;;;;53.85;37.92;;;10.70;99.90;;;;;;2603262;54;20026;31
2022/10/15 06:38:09;;;;;;;58.77;35.23;;;10.80;99.90;;;;;;2621891;46;20843;31
2022/10/15 06:40:44;;;;;;;46.50;30.73;;;10.80;99.90;;;;;;2603132;54;20034;31
2022/10/15 06:43:20;;;;;;;43.40;29.57;;;10.80;99.90;;;;;;2621953;46;20915;31
2022/10/15 06:45:57;;;;;;;50.80;34.67;;;10.90;99.90;;;;;;2602880;54;20136;31
2022/10/15 06:48:35;;;;;;;47.42;31.00;;;11.10;99.90;;;;;;2603009;54;20034;31
2022/10/15 06:51:09;;;;;;;49.30;29.33;;;10.90;99.90;;;;;;2603164;54;20042;31
2022/10/15 06:53:45;;;;;;;47.70;29.15;;;10.90;99.90;;;;;;2621668;47;20031;31
2022/10/15 06:56:19;;;;;;;47.38;29.35;;;11.30;99.90;;;;;;2603252;54;20031;31
2022/10/15 06:58:55;;;;;;;42.00;26.90;;;11.00;99.90;;;;;;2603025;54;20022;31
2022/10/15 07:01:29;;;;;;;52.08;29.17;;;11.10;99.90;;;;;;2602876;54;20059;31
2022/10/15 07:04:10;;;;;;;47.35;29.92;;;11.10;99.90;;;;;;2621450;47;20046;31
2022/10/15 07:06:46;;;;;;;44.40;28.07;;;11.20;99.90;;;;;;2621586;47;20033;31
2022/10/15 07:09:23;;;;;;;49.22;30.63;;;11.30;99.90;;;;;;2603097;54;20824;31
2022/10/15 07:11:57;;;;;;;52.10;30.88;;;11.40;99.90;;;;;;2602994;54;20072;31
2022/10/15 07:14:35;;;;;;;45.85;30.02;;;11.50;99.90;;;;;;2603274;54;20958;31
2022/10/15 07:17:16;;;;;;;53.10;29.65;;;11.70;99.90;;;;;;2622338;46;20030;31
2022/10/15 07:19:54;;;;;;;;;;;11.90;99.90;;;;;;2604184;54;20916;31
2022/10/15 07:22:28;;;;;;;44.20;27.70;;;12.10;99.90;;;;;;2603928;54;19935;31
2022/10/15 07:25:04;;;;;;;46.15;27.80;;;12.30;99.90;;;;;;2618674;46;20066;31
2022/10/15 07:27:40;;;;;;;43.70;29.10;;;12.30;99.90;;;;;;2622198;46;20056;31
2022/10/15 07:30:14;;;;;;;49.60;30.70;;;12.30;99.90;;;;;;2603599;54;20806;31
2022/10/15 07:32:50;;;;;;;47.60;29.10;;;12.70;99.90;;;;;;2622045;46;20797;31
2022/10/15 07:35:27;;;;;;;45.03;29.10;;;12.80;99.90;;;;;;2622053;46;20033;31
2022/10/15 07:38:03;;;;;;;44.03;28.45;;;12.60;99.90;;;;;;2622465;46;20048;31
2022/10/15 07:40:38;;;;;;;46.17;28.95;;;12.80;99.90;;;;;;2603647;54;20939;31
2022/10/15 07:43:13;;;;;;;44.40;29.52;;;12.80;99.90;;;;;;2602959;54;20031;31
2022/10/15 07:45:51;;;;;;;45.60;29.90;;;12.90;99.90;;;;;;2603456;54;20631;31
2022/10/15 07:48:29;;;;;;;41.95;27.67;;;13.10;99.90;;;;;;2603769;54;20027;31
2022/10/15 07:51:01;;;;;;;43.53;29.85;;;13.10;99.90;;;;;;2603854;54;20046;31
2022/10/15 07:53:39;;;;;;;41.60;28.80;;;13.20;99.90;;;;;;2603831;54;20855;31
2022/10/15 07:56:14;;;;;;;42.67;28.30;;;13.30;99.90;;;;;;2603723;54;20930;31
2022/10/15 07:58:50;;;;;;;42.10;29.58;;;13.60;99.90;;;;;;2603623;54;20813;31
2022/10/15 08:01:26;;;;;;;38.50;27.60;;;13.50;99.90;;;;;;2603761;54;20914;31
2022/10/15 08:04:01;;;;;;;38.30;27.80;;;13.40;99.90;;;;;;2622027;46;20644;31
2022/10/15 08:06:36;;;;;;;41.17;27.57;;;13.70;99.90;;;;;;2702191;39;21385;31
2022/10/15 08:09:14;;;;;;;43.53;26.95;;;13.70;99.90;;;;;;2603809;54;20251;31
2022/10/15 08:11:50;;;;;;;38.40;27.20;;;13.80;99.90;;;;;;2621959;46;20982;31
2022/10/15 08:14:30;;;;;;;39.13;26.33;;;13.80;99.90;;;;;;2603822;54;20033;31
2022/10/15 08:17:06;;;;;;;44.47;27.73;;;13.90;99.90;;;;;;2603720;54;20001;31
2022/10/15 08:19:41;;;;;;;40.10;26.70;;;14.20;99.90;;;;;;2603590;54;20027;31
2022/10/15 08:22:17;;;;;;;39.67;27.25;;;14.10;99.90;;;;;;2603568;54;20806;31
2022/10/15 08:24:56;;;;;;;44.43;29.27;;;14.20;99.90;;;;;;2603461;54;20785;31
2022/10/15 08:27:34;;;;;;;36.40;26.23;;;14.20;99.90;;;;;;2603258;54;20045;31
2022/10/15 08:30:15;;;;;;;38.45;26.10;;;14.30;99.90;;;;;;2622265;46;20018;31
2022/10/15 08:32:54;;;;;;;36.60;25.13;;;14.40;99.90;;;;;;2603290;54;20880;31
2022/10/15 08:35:34;;;;;;;40.10;27.45;;;14.40;99.90;;;;;;2609213;46;20026;31
2022/10/15 08:38:10;;;;;;;39.03;27.42;;;14.50;99.90;;;;;;2621697;46;20927;31
2022/10/15 08:40:54;;;;;;;44.15;27.80;;;14.50;99.90;;;;;;2603169;54;20912;31
2022/10/15 08:43:32;;;;;;;36.93;26.13;;;14.50;99.90;;;;;;2621600;46;20033;31
2022/10/15 08:46:11;;;;;;;37.42;26.85;;;14.50;99.90;;;;;;2602887;54;20030;31
2022/10/15 08:48:48;;;;;;;46.95;27.20;;;14.50;99.90;;;;;;2603070;54;20421;31
2022/10/15 08:51:25;;;;;;;40.70;27.27;;;14.40;99.90;;;;;;2603354;54;20030;31
2022/10/15 08:53:59;;;;;;;42.72;29.13;;;14.40;99.90;;;;;;2621133;46;20793;31
2022/10/15 08:56:47;;;;;;;43.35;29.23;;;14.40;99.90;;;;;;2603200;54;20068;31
2022/10/15 08:59:26;;;;;;;45.35;29.85;;;14.50;99.90;;;;;;2603155;54;20475;31
2022/10/15 09:02:05;;;;;;;41.55;29.35;;;14.40;99.90;;;;;;2603123;54;20927;31
2022/10/15 09:04:43;;;;;;;49.50;31.30;;;14.20;99.90;;;;;;2602826;54;20894;31
2022/10/15 09:07:21;;;;;;;45.30;30.70;;;14.30;99.90;;;;;;2621153;46;20874;31
2022/10/15 09:10:10;;;;;;;47.88;31.88;;;14.30;99.90;;;;;;2602786;54;19934;31
2022/10/15 09:12:50;;;;;;;44.95;30.48;;;14.20;99.90;;;;;;2603284;54;20049;31
2022/10/15 09:15:25;;;;;;;40.75;28.48;;;14.20;99.90;;;;;;2602285;54;20891;31
2022/10/15 09:18:01;;;;;;;;;;;14.40;99.90;;;;;;2603306;54;20022;31
2022/10/15 09:20:39;;;;;;;43.83;29.20;;;14.30;99.90;;;;;;2603129;54;19980;31
2022/10/15 09:23:15;;;;;;;41.25;27.80;;;14.30;99.90;;;;;;2603225;54;20045;31
2022/10/15 09:25:56;;;;;;;42.70;28.50;;;14.40;99.90;;;;;;2603149;54;20848;31
2022/10/15 09:28:41;;;;;;;44.25;29.80;;;14.50;99.90;;;;;;2602930;54;20806;31
2022/10/15 09:31:18;;;;;;;44.60;30.08;;;14.60;99.90;;;;;;2603370;54;20023;31
2022/10/15 09:33:55;;;;;;;42.60;29.20;;;14.50;99.90;;;;;;2605023;46;20033;31
2022/10/15 09:36:37;;;;;;;40.30;29.00;;;14.50;99.90;;;;;;2602990;54;21093;31
2022/10/15 09:39:11;;;;;;;47.55;31.92;;;14.50;99.90;;;;;;2615516;39;20378;31
2022/10/15 09:41:52;;;;;;;43.30;29.67;;;14.60;99.90;;;;;;2602960;54;21000;31
2022/10/15 09:44:37;;;;;;;46.47;30.95;;;14.60;99.90;;;;;;2621330;46;20865;31
2022/10/15 09:47:19;;;;;;;44.65;30.48;;;14.60;99.90;;;;;;2621790;46;20030;31
2022/10/15 09:49:54;;;;;;;41.80;30.13;;;14.70;99.90;;;;;;2603126;54;20066;31
2022/10/15 09:52:41;;;;;;;42.03;28.83;;;14.70;99.90;;;;;;2603324;54;20037;31
2022/10/15 09:55:22;;;;;;;43.83;28.92;;;14.80;99.90;;;;;;2603305;54;20030;31
2022/10/15 09:58:01;;;;;;;38.93;29.10;;;15.00;99.90;;;;;;2603074;54;20026;31
2022/10/15 10:01:02;;;;;;;43.90;30.27;;;14.90;99.90;;;;;;2621627;46;20030;31
2022/10/15 10:03:50;;;;;;;36.90;27.40;;;14.90;99.90;;;;;;2636286;39;20381;31
2022/10/15 10:06:27;;;;;;;36.58;27.02;;;15.00;99.90;;;;;;2621731;46;20057;31
2022/10/15 10:09:05;;;;;;;35.33;25.73;;;15.00;99.90;;;;;;2603036;54;20840;31
2022/10/15 10:11:49;;;;;;;30.50;23.35;;;15.10;99.90;;;;;;2621118;46;20031;31
2022/10/15 10:14:29;;;;;;;29.50;21.55;;;15.20;99.90;;;;;;2621986;46;20947;31
2022/10/15 10:17:17;;;;;;;30.55;23.00;;;15.20;99.90;;;;;;2603286;54;20854;31
2022/10/15 10:20:15;;;;;;;29.45;21.95;;;15.20;99.90;;;;;;2603361;54;20022;31
2022/10/15 10:22:51;;;;;;;33.93;22.23;;;15.20;99.90;;;;;;2602927;54;20920;31
2022/10/15 10:25:32;;;;;;;31.80;21.60;;;15.20;99.90;;;;;;2603002;54;20588;31
2022/10/15 10:28:17;;;;;;;25.33;19.67;;;15.30;99.90;;;;;;2602825;54;20063;31
2022/10/15 10:31:02;;;;;;;23.77;18.98;;;15.30;99.90;;;;;;2603026;54;20437;31
2022/10/15 10:33:46;;;;;;;29.55;18.70;;;15.40;99.90;;;;;;2603276;54;20899;31
2022/10/15 10:36:23;;;;;;;25.02;17.25;;;15.30;99.90;;;;;;2602935;54;20035;31
2022/10/15 10:39:00;;;;;;;24.05;18.23;;;15.30;99.90;;;;;;2602909;54;20030;31
2022/10/15 10:41:51;;;;;;;22.45;17.40;;;15.30;99.90;;;;;;2603040;54;20032;31
2022/10/15 10:44:31;;;;;;;21.58;18.00;;;15.30;99.90;;;;;;2603009;54;20030;31
2022/10/15 10:47:03;;;;;;;21.25;17.23;;;15.40;99.90;;;;;;2603041;54;20030;31
2022/10/15 10:49:42;;;;;;;22.88;17.88;;;15.30;99.90;;;;;;2603969;54;20819;31
2022/10/15 10:52:28;;;;;;;20.52;16.58;;;15.40;99.90;;;;;;2604700;54;20148;31
2022/10/15 10:57:42;;;;;;;20.40;17.17;;;15.40;99.90;;;;;;2604583;54;20262;31
2022/10/15 11:00:22;;;;;;;20.42;15.38;;;15.50;99.90;;;;;;2604710;54;20922;31
2022/10/15 11:02:56;;;;;;;21.75;17.05;;;15.50;99.90;;;;;;2603920;54;20919;31
2022/10/15 11:05:36;;;;;;;21.20;16.67;;;15.50;99.90;;;;;;2648356;38;20418;31
2022/10/15 11:08:17;;;;;;;22.57;18.10;;;15.60;99.90;;;;;;2604658;54;20031;31
2022/10/15 11:10:57;;;;;;;22.40;17.17;;;15.60;99.90;;;;;;2604545;54;20026;31
2022/10/15 11:13:43;;;;;;;20.53;17.07;;;15.60;99.90;;;;;;2604733;54;20777;31
2022/10/15 11:16:25;;;;;;;22.77;17.98;;;15.70;99.90;;;;;;2604534;54;21113;31
2022/10/15 11:19:08;;;;;;;22.20;18.17;;;15.80;99.90;;;;;;2604613;54;20036;31
2022/10/15 11:22:12;;;;;;;22.20;17.65;;;15.90;99.90;;;;;;2604533;54;20718;31
2022/10/15 11:27:40;;;;;;;22.50;18.67;;;16.00;99.90;;;;;;2604363;54;20806;31
2022/10/15 11:30:29;;;;;;;25.23;19.35;;;16.10;99.90;;;;;;2604033;54;20030;31
2022/10/15 11:33:11;;;;;;;24.15;19.58;;;16.20;99.90;;;;;;2604280;54;20953;31
2022/10/15 11:35:51;;;;;;;23.90;19.38;;;16.30;99.90;;;;;;2604413;54;20123;31
2022/10/15 11:38:35;;;;;;;24.95;20.10;;;16.40;99.90;;;;;;2604422;54;20052;31
2022/10/15 11:41:28;;;;;;;23.75;19.65;;;16.40;99.90;;;;;;2604487;54;20034;31
2022/10/15 11:44:33;;;;;;;25.67;19.57;;;16.50;99.90;;;;;;2604394;54;20089;31
2022/10/15 11:47:20;;;;;;;26.05;21.70;;;16.60;99.90;;;;;;2604097;54;21168;31
2022/10/15 11:50:02;;;;;;;25.30;21.50;;;16.60;99.90;;;;;;2604040;54;20956;31
2022/10/15 11:52:57;;;;;;;25.65;20.50;;;16.70;99.90;;;;;;2604256;54;20953;31
2022/10/15 11:58:20;;;;;;;26.60;21.25;;;16.80;99.90;;;;;;2604248;54;20913;31
2022/10/15 12:03:28;;;;;;;25.08;20.38;;;17.00;99.90;;;;;;2621874;46;20029;31
2022/10/15 12:06:07;;;;;;;27.23;20.15;;;17.10;99.90;;;;;;2603245;54;20030;31
2022/10/15 12:08:47;;;;;;;27.20;21.23;;;17.10;99.90;;;;;;2603187;54;20029;31
2022/10/15 12:11:30;;;;;;;25.60;21.58;;;17.20;99.90;;;;;;2603187;54;20920;31
2022/10/15 12:14:09;;;;;;;26.23;21.40;;;17.30;99.90;;;;;;2603384;54;20023;31
2022/10/15 12:16:50;;;;;;;24.52;21.25;;;17.30;99.90;;;;;;2621559;46;20679;31
2022/10/15 12:19:27;;;;;;;27.23;20.80;;;17.30;99.90;;;;;;2603379;54;20029;31
2022/10/15 12:22:10;;;;;;;25.95;21.77;;;17.30;99.90;;;;;;2602964;54;20892;31
2022/10/15 12:24:55;;;;;;;26.15;20.80;;;17.30;99.90;;;;;;2603218;54;21007;31
2022/10/15 12:27:33;;;;;;;25.08;20.20;;;17.30;99.90;;;;;;2621631;46;20896;31
2022/10/15 12:30:23;;;;;;;24.75;21.17;;;17.30;99.90;;;;;;2603342;54;20919;31
2022/10/15 12:32:59;;;;;;;25.77;20.50;;;17.30;99.90;;;;;;2603328;54;20030;31
2022/10/15 12:35:36;;;;;;;23.20;19.58;;;17.40;99.90;;;;;;2603263;54;20061;31
2022/10/15 12:38:14;;;;;;;23.05;19.33;;;17.40;99.90;;;;;;2603293;54;20844;31
2022/10/15 12:40:49;;;;;;;25.60;19.33;;;17.30;99.90;;;;;;2603266;54;20026;31
2022/10/15 12:43:24;;;;;;;24.53;19.67;;;17.40;99.90;;;;;;2621938;46;20746;31
2022/10/15 12:46:02;;;;;;;24.07;19.27;;;17.40;99.90;;;;;;2603170;54;21039;31
2022/10/15 12:48:40;;;;;;;21.55;18.65;;;17.30;99.90;;;;;;2621872;46;20247;31
2022/10/15 12:51:40;;;;;;;21.73;18.80;;;17.50;99.90;;;;;;2603317;54;20756;31
2022/10/15 12:54:36;;;;;;;24.02;19.13;;;17.40;99.90;;;;;;2603369;54;20033;31
2022/10/15 12:57:41;;;;;;;23.13;19.67;;;17.40;99.90;;;;;;2603203;54;20914;31
2022/10/15 13:00:15;;;;;;;23.03;19.87;;;17.40;99.90;;;;;;2603234;54;20897;31
2022/10/15 13:02:58;;;;;;;24.02;19.48;;;17.50;99.90;;;;;;2603144;54;20811;31
2022/10/15 13:05:33;;;;;;;23.15;19.38;;;17.40;99.90;;;;;;2603149;54;20860;31
2022/10/15 13:08:15;;;;;;;23.38;19.27;;;17.40;99.90;;;;;;2603098;54;20800;31
2022/10/15 13:10:51;;;;;;;22.60;18.73;;;17.50;99.90;;;;;;2603068;54;20940;31
2022/10/15 13:13:28;;;;;;;20.90;18.25;;;17.60;99.90;;;;;;2603008;54;20023;31
2022/10/15 13:16:03;;;;;;;23.40;19.38;;;17.50;99.90;;;;;;2621322;46;20035;31
2022/10/15 13:18:40;;;;;;;24.00;21.30;;;17.50;99.90;;;;;;2602983;54;20065;31
2022/10/15 13:21:15;;;;;;;22.90;20.30;;;17.40;99.90;;;;;;2621318;46;20901;31
2022/10/15 13:23:50;;;;;;;25.23;20.87;;;17.50;99.90;;;;;;2602893;54;20033;31
2022/10/15 13:26:26;;;;;;;25.23;21.27;;;17.40;99.90;;;;;;2603192;54;20033;31
2022/10/15 13:29:01;;;;;;;24.05;20.75;;;17.40;99.90;;;;;;2621758;46;20031;31
2022/10/15 13:31:38;;;;;;;23.60;21.10;;;17.40;99.90;;;;;;2602938;54;20045;31
2022/10/15 13:34:20;;;;;;;26.90;21.53;;;17.40;99.90;;;;;;2621526;46;20119;31
2022/10/15 13:36:54;;;;;;;28.38;21.42;;;17.30;99.90;;;;;;2603101;54;20093;31
2022/10/15 13:39:31;;;;;;;28.63;22.83;;;17.40;99.90;;;;;;2603069;54;20873;31
2022/10/15 13:42:25;;;;;;;25.95;21.75;;;17.40;99.90;;;;;;2602728;54;20026;31
2022/10/15 13:45:03;;;;;;;27.90;22.30;;;17.40;99.90;;;;;;2603105;54;20882;31
2022/10/15 13:47:40;;;;;;;25.43;21.07;;;17.20;99.90;;;;;;2602960;54;20299;31
2022/10/15 13:50:25;;;;;;;25.60;22.70;;;17.40;99.90;;;;;;2603206;54;20116;31
2022/10/15 13:52:59;;;;;;;24.75;22.05;;;17.30;99.90;;;;;;2602899;54;20057;31